Time;durP1;ratioP1;P1;durP2;ratioP2;P2;SDS_P1;SDS_P2;PMS_P1;PMS_P2;Temp;Humidity;BMP_temperature;BMP_pressure;BME280_temperature;BME280_humidity;BME280_pressure;Samples;Min_cycle;Max_cycle;Signal;HPM_P1;HPM_P2
2021/09/13 00:01:11;;;;;;;10.33;8.57;;;;;13.90;101402.00;;;;12775132;23;20476;-79
2021/09/13 00:06:13;;;;;;;11.30;9.93;;;;;13.90;101406.00;;;;12752312;23;20206;-79
2021/09/13 00:11:14;;;;;;;12.57;9.83;;;;;14.00;101409.00;;;;12800842;23;20518;-78
2021/09/13 00:16:16;;;;;;;11.73;9.90;;;;;14.00;101407.00;;;;12796987;23;20246;-78
2021/09/13 00:21:18;;;;;;;13.60;10.20;;;;;13.90;101405.00;;;;12776260;23;20178;-78
2021/09/13 00:26:21;;;;;;;11.33;10.13;;;;;13.90;101412.00;;;;12801877;23;20206;-78
2021/09/13 00:31:37;;;;;;;11.73;9.60;;;;;13.80;101405.00;;;;12754505;23;20230;-78
2021/09/13 00:36:40;;;;;;;12.30;10.03;;;;;13.70;101393.00;;;;12820690;23;20229;-79
2021/09/13 00:41:41;;;;;;;11.80;10.40;;;;;13.60;101410.00;;;;12774342;23;20214;-79
2021/09/13 00:46:43;;;;;;;10.27;9.17;;;;;13.60;101409.00;;;;12821547;23;20173;-78
2021/09/13 00:51:44;;;;;;;10.43;9.23;;;;;13.50;101405.00;;;;12751366;23;20203;-77
2021/09/13 00:56:46;;;;;;;11.13;9.53;;;;;13.50;101399.00;;;;12777504;23;20210;-78
2021/09/13 01:01:47;;;;;;;13.63;9.53;;;;;13.40;101401.00;;;;12751164;23;20262;-77
2021/09/13 01:06:49;;;;;;;15.67;9.40;;;;;13.30;101400.00;;;;12800844;23;20498;-77
2021/09/13 01:11:50;;;;;;;13.43;9.80;;;;;13.20;101406.00;;;;12750782;23;20199;-77
2021/09/13 01:16:52;;;;;;;13.87;9.63;;;;;13.20;101406.00;;;;12775953;23;20258;-78
2021/09/13 01:21:54;;;;;;;14.53;10.80;;;;;13.10;101414.00;;;;12752337;23;20717;-78
2021/09/13 01:27:08;;;;;;;11.37;10.00;;;;;13.10;101403.00;;;;12822238;23;20181;-78
2021/09/13 01:32:10;;;;;;;11.90;9.53;;;;;13.00;101408.00;;;;12800940;23;20195;-77
2021/09/13 01:37:32;;;;;;;11.70;9.70;;;;;12.90;101395.00;;;;12752420;23;20194;-78
2021/09/13 01:42:43;;;;;;;15.67;10.33;;;;;12.80;101398.00;;;;12728364;23;20234;-78
2021/09/13 01:47:44;;;;;;;14.30;9.97;;;;;12.80;101391.00;;;;12752587;23;20174;-78
2021/09/13 01:52:49;;;;;;;12.47;10.33;;;;;12.80;101384.00;;;;12775860;23;20653;-78
2021/09/13 01:57:50;;;;;;;14.33;10.47;;;;;12.70;101373.00;;;;12801788;23;20203;-78
2021/09/13 02:02:55;;;;;;;12.67;9.87;;;;;12.70;101371.00;;;;12727268;23;20223;-77
2021/09/13 02:08:13;;;;;;;12.40;9.63;;;;;12.70;101374.00;;;;12753670;23;20614;-79
2021/09/13 02:13:15;;;;;;;13.37;9.53;;;;;12.60;101364.00;;;;12801394;23;20278;-77
2021/09/13 02:18:16;;;;;;;15.17;10.07;;;;;12.50;101360.00;;;;12820760;23;20163;-78
2021/09/13 02:23:24;;;;;;;10.93;8.73;;;;;12.50;101357.00;;;;12775377;23;20198;-79
2021/09/13 02:28:27;;;;;;;12.90;9.43;;;;;12.50;101364.00;;;;12749415;23;20171;-77
2021/09/13 02:33:28;;;;;;;10.73;8.13;;;;;12.40;101366.00;;;;12776844;23;20209;-78
2021/09/13 02:38:29;;;;;;;12.13;8.83;;;;;12.50;101365.00;;;;12725719;23;20195;-77
2021/09/13 02:43:31;;;;;;;11.10;9.00;;;;;12.50;101373.00;;;;12795072;23;20167;-77
2021/09/13 02:48:33;;;;;;;11.97;9.43;;;;;12.60;101368.00;;;;12774169;23;20182;-78
2021/09/13 02:53:38;;;;;;;11.57;9.13;;;;;12.60;101375.00;;;;12724728;23;20195;-78
2021/09/13 02:58:40;;;;;;;12.67;9.50;;;;;12.60;101383.00;;;;12725488;23;20175;-79
2021/09/13 03:03:42;;;;;;;12.33;9.83;;;;;12.50;101378.00;;;;12775205;23;20185;-79
2021/09/13 03:08:46;;;;;;;17.03;9.67;;;;;12.50;101380.00;;;;12821509;23;20725;-79
2021/09/13 03:13:47;;;;;;;12.03;9.47;;;;;12.40;101378.00;;;;12774776;23;20792;-78
2021/09/13 03:18:48;;;;;;;14.53;8.87;;;;;12.40;101378.00;;;;12774990;23;20566;-79
2021/09/13 03:23:50;;;;;;;12.53;8.53;;;;;12.30;101367.00;;;;12751915;23;20491;-79
2021/09/13 03:28:52;;;;;;;10.80;8.93;;;;;12.20;101377.00;;;;12797747;23;20171;-79
2021/09/13 03:33:53;;;;;;;15.00;9.67;;;;;12.20;101381.00;;;;12751687;23;20198;-78
2021/09/13 03:38:54;;;;;;;12.90;9.13;;;;;12.10;101383.00;;;;12775811;23;20206;-79
2021/09/13 03:43:56;;;;;;;12.73;8.27;;;;;12.00;101377.00;;;;12821028;23;20189;-78
2021/09/13 03:48:57;;;;;;;13.80;9.13;;;;;12.00;101368.00;;;;12775381;23;20607;-78
2021/09/13 03:53:59;;;;;;;12.57;8.73;;;;;11.90;101375.00;;;;12820865;23;20195;-79
2021/09/13 03:59:00;;;;;;;11.00;8.40;;;;;11.80;101368.00;;;;12819882;23;20610;-78
2021/09/13 04:04:04;;;;;;;13.53;9.53;;;;;11.80;101373.00;;;;12749920;23;20506;-79
2021/09/13 04:09:41;;;;;;;9.77;8.10;;;;;11.70;101378.00;;;;12799129;23;20217;-78
2021/09/13 04:14:40;;;;;;;15.07;8.20;;;;;11.60;101386.00;;;;12800181;23;20209;-78
2021/09/13 04:19:59;;;;;;;11.67;8.60;;;;;11.60;101370.00;;;;12773800;23;20174;-79
2021/09/13 04:25:23;;;;;;;12.80;9.00;;;;;11.50;101381.00;;;;12799510;23;20179;-79
2021/09/13 04:30:37;;;;;;;11.37;8.70;;;;;11.50;101376.00;;;;12800126;23;20510;-79
2021/09/13 04:35:59;;;;;;;10.40;8.83;;;;;11.40;101376.00;;;;12778876;23;20202;-79
2021/09/13 04:41:21;;;;;;;11.63;8.80;;;;;11.30;101378.00;;;;12731339;23;20213;-78
2021/09/13 04:46:42;;;;;;;12.57;8.00;;;;;11.20;101373.00;;;;12773561;23;20179;-80
2021/09/13 04:52:12;;;;;;;12.90;8.33;;;;;11.20;101378.00;;;;12749953;23;20522;-78
2021/09/13 04:57:19;;;;;;;15.07;8.83;;;;;11.10;101371.00;;;;12723056;23;20796;-78
2021/09/13 05:02:21;;;;;;;12.90;8.90;;;;;11.10;101373.00;;;;12735185;23;20206;-79
2021/09/13 05:07:23;;;;;;;11.43;8.73;;;;;11.10;101373.00;;;;12747130;23;20178;-79
2021/09/13 05:12:25;;;;;;;12.13;8.93;;;;;11.10;101372.00;;;;12745448;23;20199;-79
2021/09/13 05:17:26;;;;;;;14.57;9.33;;;;;11.10;101370.00;;;;12746343;23;20201;-78
2021/09/13 05:22:28;;;;;;;15.37;10.17;;;;;11.10;101377.00;;;;12772593;23;20701;-78
2021/09/13 05:27:32;;;;;;;18.87;10.90;;;;;11.10;101381.00;;;;12723589;23;20206;-79
2021/09/13 05:32:33;;;;;;;12.27;9.90;;;;;11.20;101386.00;;;;12748141;23;20230;-79
2021/09/13 05:37:35;;;;;;;14.37;10.50;;;;;11.20;101383.00;;;;12793605;23;20183;-79
2021/09/13 05:42:38;;;;;;;13.63;8.50;;;;;11.30;101383.00;;;;12818797;23;20167;-78
2021/09/13 05:47:43;;;;;;;14.43;8.90;;;;;11.40;101391.00;;;;12725578;23;20175;-80
2021/09/13 05:52:45;;;;;;;13.27;8.40;;;;;11.50;101386.00;;;;12769886;23;20285;-79
2021/09/13 05:57:48;;;;;;;12.67;9.50;;;;;11.60;101385.00;;;;12744723;23;20171;-80
2021/09/13 06:02:54;;;;;;;12.73;8.67;;;;;11.90;101398.00;;;;12744910;23;20178;-80
2021/09/13 06:08:05;;;;;;;12.07;9.57;;;;;12.10;101409.00;;;;12767066;23;20298;-80
2021/09/13 06:13:11;;;;;;;17.17;11.03;;;;;12.40;101400.00;;;;12761309;23;20304;-80
2021/09/13 06:18:14;;;;;;;12.67;9.47;;;;;12.60;101384.00;;;;12766397;23;20174;-80
2021/09/13 06:23:16;;;;;;;13.63;9.83;;;;;12.80;101392.00;;;;12741375;23;20190;-80
2021/09/13 06:28:17;;;;;;;14.00;9.60;;;;;13.10;101407.00;;;;12741996;23;20210;-80
2021/09/13 06:33:19;;;;;;;15.43;9.63;;;;;13.50;101429.00;;;;12741855;23;20627;-81
2021/09/13 06:38:20;;;;;;;18.67;11.70;;;;;14.00;101441.00;;;;12767184;23;20205;-79
2021/09/13 06:43:21;;;;;;;16.07;9.80;;;;;14.30;101448.00;;;;12744157;23;20565;-80
2021/09/13 06:48:26;;;;;;;14.10;10.00;;;;;14.60;101454.00;;;;12742354;23;20175;-79
2021/09/13 06:53:27;;;;;;;55.27;13.43;;;;;14.90;101456.00;;;;12742922;23;20201;-79
2021/09/13 06:58:29;;;;;;;18.30;11.17;;;;;15.20;101455.00;;;;12741574;23;20178;-80
2021/09/13 07:03:30;;;;;;;16.63;11.67;;;;;15.50;101455.00;;;;12765872;23;20202;-78
2021/09/13 07:08:31;;;;;;;15.00;12.27;;;;;15.80;101459.00;;;;12743015;23;20175;-80
2021/09/13 07:13:33;;;;;;;17.43;12.53;;;;;15.90;101466.00;;;;12756490;23;20201;-79
2021/09/13 07:18:41;;;;;;;16.50;13.63;;;;;16.10;101468.00;;;;12761846;23;20237;-79
2021/09/13 07:23:43;;;;;;;20.15;15.02;;;;;16.20;101465.00;;;;12737619;23;20615;-79
2021/09/13 07:28:45;;;;;;;23.20;15.45;;;;;16.60;101459.00;;;;12714991;23;20238;-80
2021/09/13 07:33:46;;;;;;;20.25;15.18;;;;;16.80;101451.00;;;;12733847;23;20198;-79
2021/09/13 07:38:47;;;;;;;31.33;15.90;;;;;17.10;101453.00;;;;12798714;23;20187;-79
2021/09/13 07:43:48;;;;;;;19.10;13.75;;;;;17.40;101440.00;;;;12705510;23;20855;-80
2021/09/13 07:48:50;;;;;;;17.30;12.57;;;;;17.50;101439.00;;;;12776971;23;20171;-80
2021/09/13 07:53:51;;;;;;;15.68;10.52;;;;;17.90;101440.00;;;;12704066;23;20219;-79
2021/09/13 07:58:52;;;;;;;15.15;9.80;;;;;18.20;101442.00;;;;12781034;23;20215;-79
2021/09/13 08:03:53;;;;;;;10.10;8.82;;;;;18.50;101442.00;;;;12732203;23;20174;-79
2021/09/13 08:08:55;;;;;;;11.55;7.90;;;;;18.70;101439.00;;;;12708705;23;21083;-79
2021/09/13 08:13:56;;;;;;;13.27;7.35;;;;;18.80;101445.00;;;;12785040;23;20272;-80
2021/09/13 08:18:58;;;;;;;13.98;7.43;;;;;18.90;101444.00;;;;12733577;23;20236;-79
2021/09/13 08:24:01;;;;;;;10.00;8.00;;;;;19.10;101442.00;;;;12803108;23;20171;-79
2021/09/13 08:29:02;;;;;;;9.20;7.72;;;;;19.60;101446.00;;;;12755824;23;20175;-80
2021/09/13 08:34:04;;;;;;;9.40;6.55;;;;;19.80;101447.00;;;;12759337;23;20739;-81
2021/09/13 08:39:05;;;;;;;9.18;6.95;;;;;20.30;101452.00;;;;12782132;23;20194;-80
2021/09/13 08:44:07;;;;;;;8.07;6.63;;;;;20.60;101443.00;;;;12734242;23;20182;-81
2021/09/13 08:49:11;;;;;;;7.90;6.28;;;;;20.60;101434.00;;;;12781059;23;20671;-80
2021/09/13 08:54:13;;;;;;;10.80;6.88;;;;;21.10;101438.00;;;;12761668;23;20198;-81
2021/09/13 08:59:16;;;;;;;14.77;6.47;;;;;21.40;101438.00;;;;12733951;23;20193;-80
2021/09/13 09:04:18;;;;;;;8.27;6.25;;;;;21.70;101437.00;;;;12732301;23;20174;-81
2021/09/13 09:09:21;;;;;;;8.73;6.32;;;;;22.10;101448.00;;;;12760120;23;20179;-81
2021/09/13 09:14:33;;;;;;;8.68;6.30;;;;;22.60;101451.00;;;;12733889;23;20745;-80
2021/09/13 09:19:36;;;;;;;8.50;6.10;;;;;22.70;101442.00;;;;12731101;23;20185;-81
2021/09/13 09:24:38;;;;;;;8.77;5.63;;;;;22.80;101438.00;;;;12755970;23;20610;-81
2021/09/13 09:29:39;;;;;;;10.82;7.22;;;;;22.80;101436.00;;;;12754774;23;20266;-80
2021/09/13 09:34:40;;;;;;;8.23;6.15;;;;;23.00;101430.00;;;;12727420;23;20645;-81
2021/09/13 09:39:50;;;;;;;10.00;6.38;;;;;23.00;101426.00;;;;12727933;23;20197;-81
2021/09/13 09:44:51;;;;;;;8.82;5.35;;;;;23.40;101421.00;;;;12750821;23;20174;-81
2021/09/13 09:49:55;;;;;;;6.07;4.90;;;;;23.80;101422.00;;;;12752504;23;20660;-80
2021/09/13 09:55:16;;;;;;;6.70;4.18;;;;;24.00;101419.00;;;;12727117;23;20202;-78
2021/09/13 10:00:22;;;;;;;7.68;4.53;;;;;23.90;101410.00;;;;12753660;23;20177;-81
2021/09/13 10:05:28;;;;;;;8.25;4.50;;;;;24.20;101406.00;;;;12752575;23;20210;-81
2021/09/13 10:10:31;;;;;;;4.82;3.33;;;;;24.40;101407.00;;;;12750953;23;20170;-81
2021/09/13 10:15:32;;;;;;;5.57;3.25;;;;;24.30;101405.00;;;;12740406;23;20225;-79
2021/09/13 10:20:34;;;;;;;3.78;3.47;;;;;24.00;101395.00;;;;12731987;23;20171;-81
2021/09/13 10:25:36;;;;;;;4.35;2.30;;;;;24.30;101402.00;;;;12800172;23;20179;-80
2021/09/13 10:30:52;;;;;;;5.57;2.55;;;;;24.70;101399.00;;;;12749571;23;20201;-79
2021/09/13 10:36:13;;;;;;;6.32;2.80;;;;;24.80;101402.00;;;;12756601;23;20171;-81
2021/09/13 10:41:52;;;;;;;3.17;2.08;;;;;24.80;101395.00;;;;12750284;23;20190;-79
2021/09/13 10:47:03;;;;;;;6.35;2.20;;;;;25.00;101380.00;;;;12703434;23;20686;-80
2021/09/13 10:52:30;;;;;;;5.85;2.40;;;;;25.20;101383.00;;;;12752682;23;20206;-78
2021/09/13 10:57:51;;;;;;;3.15;2.15;;;;;25.30;101374.00;;;;12702600;23;20170;-78
2021/09/13 11:08:26;;;;;;;7.68;3.08;;;;;25.50;101359.00;;;;12775918;23;20210;-78
2021/09/13 11:13:27;;;;;;;8.40;2.90;;;;;25.50;101351.00;;;;12748269;23;20198;-79
2021/09/13 11:18:41;;;;;;;5.15;2.13;;;;;25.70;101342.00;;;;12724481;23;20179;-77
2021/09/13 11:23:42;;;;;;;4.63;3.53;;;;;25.90;101337.00;;;;12725816;23;20510;-78
2021/09/13 11:29:10;;;;;;;3.55;2.70;;;;;25.50;101325.00;;;;12706037;23;20175;-81
2021/09/13 11:34:15;;;;;;;4.68;2.90;;;;;25.50;101320.00;;;;12811156;23;20273;-76
2021/09/13 11:39:20;;;;;;;5.43;4.18;;;;;25.40;101331.00;;;;12768932;23;20255;-77
2021/09/13 11:44:22;;;;;;;4.72;2.88;;;;;25.30;101323.00;;;;12766618;23;20523;-76
2021/09/13 11:49:30;;;;;;;7.68;3.30;;;;;25.20;101314.00;;;;12740161;23;20230;-77
2021/09/13 11:54:49;;;;;;;6.95;3.80;;;;;25.20;101319.00;;;;12771603;23;20856;-79
2021/09/13 12:00:05;;;;;;;6.45;3.35;;;;;25.40;101322.00;;;;12744919;23;20193;-76
2021/09/13 12:05:15;;;;;;;8.00;3.28;;;;;25.60;101316.00;;;;12766252;23;20177;-76
2021/09/13 12:10:23;;;;;;;6.35;2.95;;;;;25.60;101315.00;;;;12762312;23;20182;-76
2021/09/13 12:15:27;;;;;;;4.82;2.70;;;;;25.70;101312.00;;;;12762494;23;20199;-76
2021/09/13 12:20:34;;;;;;;6.05;2.70;;;;;25.80;101316.00;;;;12787011;23;20171;-76
2021/09/13 12:25:41;;;;;;;4.38;2.80;;;;;25.80;101306.00;;;;12761767;23;20521;-78
2021/09/13 12:30:42;;;;;;;4.20;2.83;;;;;25.70;101293.00;;;;12762399;23;20602;-76
2021/09/13 12:35:45;;;;;;;6.72;3.15;;;;;25.70;101292.00;;;;12761705;23;20530;-79
2021/09/13 12:40:46;;;;;;;5.43;3.80;;;;;25.80;101293.00;;;;12737234;23;20249;-76
2021/09/13 12:45:48;;;;;;;4.03;3.05;;;;;26.00;101279.00;;;;12739470;23;20186;-76
2021/09/13 12:50:52;;;;;;;4.05;2.75;;;;;26.40;101264.00;;;;12739259;23;20337;-77
2021/09/13 12:55:55;;;;;;;3.80;2.47;;;;;27.00;101255.00;;;;12742922;23;20229;-77
2021/09/13 13:01:00;;;;;;;2.88;2.60;;;;;27.30;101264.00;;;;12789503;23;20159;-76
2021/09/13 13:06:16;;;;;;;4.78;3.05;;;;;27.50;101263.00;;;;12761218;23;20166;-76
2021/09/13 13:11:17;;;;;;;6.40;3.08;;;;;27.30;101259.00;;;;12715424;23;20177;-76
2021/09/13 13:16:19;;;;;;;4.55;3.00;;;;;26.90;101256.00;;;;12759131;23;20849;-76
2021/09/13 13:21:20;;;;;;;5.40;3.45;;;;;26.70;101254.00;;;;12760912;23;20503;-76
2021/09/13 13:26:21;;;;;;;7.35;3.70;;;;;25.80;101247.00;;;;12711177;23;20178;-76
2021/09/13 13:31:22;;;;;;;7.82;3.17;;;;;26.30;101243.00;;;;12734967;23;20238;-76
2021/09/13 13:36:24;;;;;;;4.97;3.35;;;;;26.80;101247.00;;;;12735605;23;20692;-77
2021/09/13 13:41:25;;;;;;;5.82;3.25;;;;;26.60;101253.00;;;;12758848;23;20799;-77
2021/09/13 13:46:32;;;;;;;5.68;3.95;;;;;25.90;101236.00;;;;12760297;23;20191;-77
2021/09/13 13:51:33;;;;;;;6.22;3.30;;;;;25.70;101224.00;;;;12735740;23;20354;-77
2021/09/13 13:56:34;;;;;;;5.25;3.65;;;;;25.50;101219.00;;;;12736276;23;20175;-77
2021/09/13 14:01:35;;;;;;;8.00;3.60;;;;;25.10;101214.00;;;;12736953;23;20234;-78
2021/09/13 14:06:38;;;;;;;6.90;4.05;;;;;25.50;101201.00;;;;12760323;23;20171;-77
2021/09/13 14:11:39;;;;;;;5.63;4.38;;;;;25.90;101194.00;;;;12783220;23;20626;-77
2021/09/13 14:16:41;;;;;;;6.30;4.70;;;;;26.00;101174.00;;;;12710016;23;20265;-77
2021/09/13 14:21:43;;;;;;;6.47;4.10;;;;;25.80;101165.00;;;;12725320;23;20185;-77
2021/09/13 14:26:44;;;;;;;7.45;5.05;;;;;25.30;101155.00;;;;12794014;23;20166;-76
2021/09/13 14:31:46;;;;;;;67.88;38.42;;;;;25.10;101161.00;;;;12723129;23;20271;-76
2021/09/13 14:36:47;;;;;;;6.82;4.57;;;;;24.80;101152.00;;;;12748078;23;20178;-77
2021/09/13 14:41:49;;;;;;;23.30;16.35;;;;;24.50;101157.00;;;;12748951;23;20195;-79
2021/09/13 14:46:51;;;;;;;7.45;4.70;;;;;24.20;101161.00;;;;12723816;23;20183;-76
2021/09/13 14:51:52;;;;;;;9.85;6.95;;;;;24.00;101147.00;;;;12799014;23;20533;-80
2021/09/13 14:56:53;;;;;;;8.30;6.07;;;;;24.30;101143.00;;;;12724484;23;20241;-79
2021/09/13 15:01:55;;;;;;;40.67;23.85;;;;;24.00;101145.00;;;;12749900;23;20225;-80
2021/09/13 15:06:57;;;;;;;9.85;5.75;;;;;23.80;101156.00;;;;12797281;23;20542;-79
2021/09/13 15:11:58;;;;;;;8.98;7.95;;;;;23.50;101158.00;;;;12704512;23;20187;-79
2021/09/13 15:16:59;;;;;;;9.80;7.63;;;;;23.20;101163.00;;;;12726555;23;20178;-80
2021/09/13 15:22:01;;;;;;;12.75;9.27;;;;;23.10;101151.00;;;;12799578;23;20202;-78
2021/09/13 15:27:03;;;;;;;9.13;8.00;;;;;23.00;101149.00;;;;12775158;23;20261;-80
2021/09/13 15:32:04;;;;;;;9.55;7.97;;;;;23.10;101148.00;;;;12727106;23;20186;-80
2021/09/13 15:37:05;;;;;;;10.15;7.47;;;;;23.00;101154.00;;;;12773297;23;20270;-80
2021/09/13 15:42:07;;;;;;;10.05;7.97;;;;;22.90;101155.00;;;;12776381;23;20590;-79
2021/09/13 15:47:09;;;;;;;11.52;8.35;;;;;22.60;101150.00;;;;12754210;23;20171;-80
2021/09/13 15:52:10;;;;;;;9.68;8.18;;;;;22.40;101141.00;;;;12780626;23;20187;-80
2021/09/13 15:57:14;;;;;;;9.75;8.45;;;;;22.30;101149.00;;;;12769182;23;20194;-79
2021/09/13 16:02:15;;;;;;;9.82;8.68;;;;;22.30;101152.00;;;;12748222;23;20641;-80
2021/09/13 16:07:17;;;;;;;13.38;9.43;;;;;22.30;101135.00;;;;12740788;23;20843;-79
2021/09/13 16:12:18;;;;;;;13.05;8.23;;;;;22.30;101131.00;;;;12743316;23;20194;-79
2021/09/13 16:17:20;;;;;;;12.35;8.50;;;;;22.30;101127.00;;;;12744686;23;20174;-79
2021/09/13 16:22:21;;;;;;;10.88;8.15;;;;;22.20;101119.00;;;;12743158;23;20179;-79
2021/09/13 16:27:22;;;;;;;13.32;9.43;;;;;22.10;101120.00;;;;12790240;23;20171;-79
2021/09/13 16:32:23;;;;;;;12.50;7.95;;;;;22.00;101115.00;;;;12793553;23;20190;-78
2021/09/13 16:37:24;;;;;;;10.85;9.18;;;;;21.80;101124.00;;;;12744643;23;20170;-78
2021/09/13 16:42:26;;;;;;;11.80;8.00;;;;;21.70;101109.00;;;;12770402;23;20204;-78
2021/09/13 16:47:27;;;;;;;14.38;7.85;;;;;21.50;101118.00;;;;12814336;23;20166;-78
2021/09/13 16:52:28;;;;;;;10.15;7.95;;;;;21.30;101127.00;;;;12794784;23;20191;-78
2021/09/13 16:57:30;;;;;;;9.40;8.15;;;;;21.10;101125.00;;;;12745063;23;20171;-79
2021/09/13 17:02:31;;;;;;;8.27;6.97;;;;;21.00;101129.00;;;;12771882;23;20518;-78
2021/09/13 17:07:32;;;;;;;9.50;7.60;;;;;20.80;101134.00;;;;12770025;23;20174;-78
2021/09/13 17:12:34;;;;;;;7.57;6.63;;;;;20.70;101131.00;;;;12795061;23;20202;-78
2021/09/13 17:17:35;;;;;;;7.65;6.85;;;;;20.50;101135.00;;;;12721151;23;20234;-79
2021/09/13 17:22:39;;;;;;;11.27;7.60;;;;;20.30;101135.00;;;;12795707;23;20549;-79
2021/09/13 17:27:40;;;;;;;11.88;8.00;;;;;20.20;101130.00;;;;12769513;23;20619;-78
2021/09/13 17:32:41;;;;;;;10.43;7.60;;;;;20.00;101137.00;;;;12769756;23;20282;-78
2021/09/13 17:37:42;;;;;;;10.38;7.53;;;;;19.80;101121.00;;;;12794886;23;20530;-78
2021/09/13 17:42:44;;;;;;;9.23;7.55;;;;;19.60;101121.00;;;;12768680;23;20171;-78
2021/09/13 17:47:45;;;;;;;15.38;9.10;;;;;19.30;101121.00;;;;12770730;23;20179;-78
2021/09/13 17:52:47;;;;;;;13.38;9.20;;;;;19.10;101114.00;;;;12768676;23;20206;-79
2021/09/13 17:57:48;;;;;;;13.40;10.07;;;;;18.90;101111.00;;;;12795737;23;20559;-79
2021/09/13 18:02:49;;;;;;;22.88;15.13;;;;;18.70;101103.00;;;;12769005;23;20178;-78
2021/09/13 18:07:51;;;;;;;22.35;15.80;;;;;18.60;101108.00;;;;12770461;23;20613;-79
2021/09/13 18:12:52;;;;;;;32.50;20.02;;;;;18.40;101123.00;;;;12769703;23;20201;-79
2021/09/13 18:17:53;;;;;;;23.65;15.68;;;;;18.30;101121.00;;;;12795533;23;20171;-78
2021/09/13 18:22:54;;;;;;;19.10;13.60;;;;;18.20;101117.00;;;;12744819;23;20178;-79
2021/09/13 18:27:56;;;;;;;13.45;10.60;;;;;18.10;101133.00;;;;12770169;23;20606;-78
2021/09/13 18:32:57;;;;;;;15.55;10.40;;;;;18.00;101131.00;;;;12791637;23;20241;-78
2021/09/13 18:37:59;;;;;;;12.23;10.25;;;;;18.00;101123.00;;;;12746875;23;20195;-79
2021/09/13 18:43:02;;;;;;;12.90;9.85;;;;;17.90;101127.00;;;;12747054;23;20185;-78
2021/09/13 18:48:05;;;;;;;9.93;8.90;;;;;17.80;101139.00;;;;12796522;23;20641;-78
2021/09/13 18:53:06;;;;;;;10.75;9.65;;;;;17.70;101128.00;;;;12797589;23;20190;-78
2021/09/13 18:58:07;;;;;;;11.82;9.50;;;;;17.60;101135.00;;;;12747344;23;20170;-78
2021/09/13 19:03:09;;;;;;;15.50;11.57;;;;;17.50;101137.00;;;;12748363;23;20625;-77
2021/09/13 19:08:10;;;;;;;14.30;10.90;;;;;17.40;101140.00;;;;12797478;23;20578;-78
2021/09/13 19:13:14;;;;;;;18.73;10.85;;;;;17.30;101141.00;;;;12748100;23;20199;-79
2021/09/13 19:18:17;;;;;;;12.65;11.32;;;;;17.20;101139.00;;;;12748265;23;20623;-77
2021/09/13 19:23:19;;;;;;;11.20;10.15;;;;;17.20;101142.00;;;;12817375;23;20177;-78
2021/09/13 19:28:21;;;;;;;13.45;10.82;;;;;17.10;101144.00;;;;12771439;23;20171;-78
2021/09/13 19:33:22;;;;;;;14.80;11.32;;;;;17.00;101143.00;;;;12746855;23;20202;-78
2021/09/13 19:38:25;;;;;;;12.95;11.02;;;;;16.90;101136.00;;;;12747558;23;20202;-78
2021/09/13 19:43:26;;;;;;;14.20;11.10;;;;;16.80;101133.00;;;;12745729;23;20175;-78
2021/09/13 19:48:27;;;;;;;12.75;11.18;;;;;16.70;101142.00;;;;12791000;23;20182;-78
2021/09/13 19:53:29;;;;;;;17.58;12.52;;;;;16.60;101130.00;;;;12815669;23;20269;-77
2021/09/13 19:58:30;;;;;;;14.43;12.13;;;;;16.60;101133.00;;;;12769528;23;20283;-78
2021/09/13 20:03:31;;;;;;;14.90;12.45;;;;;16.50;101121.00;;;;12770035;23;20183;-77
2021/09/13 20:08:33;;;;;;;14.43;12.93;;;;;16.40;101113.00;;;;12769133;23;20175;-79
2021/09/13 20:13:34;;;;;;;16.05;13.73;;;;;16.40;101116.00;;;;12745924;23;20213;-78
2021/09/13 20:18:35;;;;;;;19.90;15.93;;;;;16.30;101113.00;;;;12744551;23;20171;-77
2021/09/13 20:23:37;;;;;;;15.32;13.82;;;;;16.20;101109.00;;;;12816553;23;20170;-79
2021/09/13 20:28:38;;;;;;;17.67;14.50;;;;;16.10;101111.00;;;;12795069;23;20167;-78
2021/09/13 20:33:39;;;;;;;17.20;14.70;;;;;16.00;101114.00;;;;12770379;23;20279;-78
2021/09/13 20:38:40;;;;;;;19.35;15.27;;;;;15.90;101110.00;;;;12796066;23;20194;-78
2021/09/13 20:43:42;;;;;;;18.10;15.00;;;;;15.80;101110.00;;;;12747360;23;20175;-78
2021/09/13 20:48:43;;;;;;;21.20;16.87;;;;;15.70;101106.00;;;;12721743;23;20226;-78
2021/09/13 20:53:44;;;;;;;19.97;16.60;;;;;15.60;101087.00;;;;12793929;23;20495;-78
2021/09/13 20:58:46;;;;;;;27.30;17.20;;;;;15.60;101081.00;;;;12746337;23;20171;-79
2021/09/13 21:03:51;;;;;;;18.43;16.33;;;;;15.50;101079.00;;;;12820291;23;20254;-77
2021/09/13 21:08:54;;;;;;;20.03;16.57;;;;;15.40;101070.00;;;;12770655;23;20250;-77
2021/09/13 21:13:56;;;;;;;21.47;17.80;;;;;15.30;101068.00;;;;12790072;23;20642;-77
2021/09/13 21:18:57;;;;;;;19.93;17.93;;;;;15.30;101058.00;;;;12794068;23;20542;-78
2021/09/13 21:23:59;;;;;;;23.03;18.43;;;;;15.20;101043.00;;;;12721528;23;20189;-77
2021/09/13 21:29:08;;;;;;;19.90;17.20;;;;;15.20;101041.00;;;;10657707;27;20339;-77
2021/09/13 21:34:09;;;;;;;20.03;17.93;;;;;15.10;101035.00;;;;10581194;27;20692;-77
2021/09/13 21:39:10;;;;;;;20.70;18.13;;;;;15.10;101034.00;;;;10591928;27;20275;-77
2021/09/13 21:44:11;;;;;;;24.73;19.03;;;;;15.00;101032.00;;;;10592414;27;20188;-76
2021/09/13 21:49:12;;;;;;;23.60;19.67;;;;;15.00;101031.00;;;;10591947;27;20654;-76
2021/09/13 21:54:13;;;;;;;26.57;19.50;;;;;14.90;101029.00;;;;10559693;27;20203;-77
2021/09/13 21:59:15;;;;;;;22.10;19.33;;;;;14.80;101044.00;;;;10580740;27;20212;-76
2021/09/13 22:04:17;;;;;;;27.03;20.43;;;;;14.70;101039.00;;;;10591400;27;20199;-76
2021/09/13 22:09:18;;;;;;;24.87;22.10;;;;;14.60;101027.00;;;;10559398;27;20212;-76
2021/09/13 22:14:19;;;;;;;25.93;21.53;;;;;14.50;101018.00;;;;10542442;27;20199;-77
2021/09/13 22:19:20;;;;;;;25.53;21.20;;;;;14.50;101015.00;;;;10575684;27;20187;-77
2021/09/13 22:24:22;;;;;;;23.63;21.03;;;;;14.40;101012.00;;;;10558276;27;20199;-77
2021/09/13 22:29:23;;;;;;;25.67;20.47;;;;;14.30;101011.00;;;;10567215;27;20297;-77
2021/09/13 22:34:24;;;;;;;25.97;21.87;;;;;14.20;101006.00;;;;10619633;27;20649;-77
2021/09/13 22:39:25;;;;;;;26.07;22.23;;;;;14.10;101000.00;;;;10597419;27;20208;-77
2021/09/13 22:44:26;;;;;;;24.67;21.10;;;;;14.00;100995.00;;;;10546519;27;20196;-77
2021/09/13 22:49:28;;;;;;;25.33;22.10;;;;;14.00;100985.00;;;;10546063;27;20196;-77
2021/09/13 22:54:29;;;;;;;25.23;22.43;;;;;13.90;100988.00;;;;10513908;27;20199;-77
2021/09/13 22:59:30;;;;;;;27.57;21.17;;;;;13.90;100988.00;;;;10549820;28;20196;-77
2021/09/13 23:04:31;;;;;;;26.23;22.90;;;;;13.80;100996.00;;;;10511392;28;20239;-77
2021/09/13 23:09:33;;;;;;;33.43;23.77;;;;;13.70;100992.00;;;;10528156;28;20546;-77
2021/09/13 23:14:36;;;;;;;24.00;21.47;;;;;13.70;100995.00;;;;10544987;28;20195;-77
2021/09/13 23:19:37;;;;;;;27.60;21.70;;;;;13.60;100993.00;;;;10544614;27;20888;-76
2021/09/13 23:24:39;;;;;;;27.87;23.70;;;;;13.50;100986.00;;;;10527818;27;20318;-77
2021/09/13 23:29:40;;;;;;;29.27;23.17;;;;;13.50;100985.00;;;;10503708;28;20201;-77
2021/09/13 23:34:42;;;;;;;27.87;22.43;;;;;13.40;100985.00;;;;10558895;27;20211;-77
2021/09/13 23:39:44;;;;;;;32.87;24.20;;;;;13.30;100996.00;;;;10510909;27;20840;-76
2021/09/13 23:44:45;;;;;;;30.37;25.07;;;;;13.30;100991.00;;;;10544034;27;20208;-76
2021/09/13 23:49:48;;;;;;;28.93;22.80;;;;;13.30;100991.00;;;;10510292;27;20662;-76
2021/09/13 23:54:49;;;;;;;28.17;23.27;;;;;13.20;100987.00;;;;10527264;27;20199;-76
2021/09/13 23:59:51;;;;;;;28.30;25.20;;;;;13.20;100981.00;;;;10540627;27;20206;-76
